sensor_id;sensor_type;location;lat;lon;timestamp;temperature;humidity
12708;DHT22;6418;50.824;4.718;2024-02-14T00:00:51;8.50;99.90
12708;DHT22;6418;50.824;4.718;2024-02-14T00:03:17;8.50;99.90
12708;DHT22;6418;50.824;4.718;2024-02-14T00:05:46;8.50;99.90
12708;DHT22;6418;50.824;4.718;2024-02-14T00:08:12;8.50;99.90
12708;DHT22;6418;50.824;4.718;2024-02-14T00:10:40;8.50;99.90
12708;DHT22;6418;50.824;4.718;2024-02-14T00:13:10;8.50;99.90
12708;DHT22;6418;50.824;4.718;2024-02-14T00:15:37;8.50;99.90
12708;DHT22;6418;50.824;4.718;2024-02-14T00:18:04;8.50;99.90
12708;DHT22;6418;50.824;4.718;2024-02-14T00:20:31;8.60;99.90
12708;DHT22;6418;50.824;4.718;2024-02-14T00:22:58;8.60;99.90
12708;DHT22;6418;50.824;4.718;2024-02-14T00:25:25;8.60;99.90
12708;DHT22;6418;50.824;4.718;2024-02-14T00:27:52;8.60;99.90
12708;DHT22;6418;50.824;4.718;2024-02-14T00:30:21;8.60;99.90
12708;DHT22;6418;50.824;4.718;2024-02-14T00:32:48;8.60;99.90
12708;DHT22;6418;50.824;4.718;2024-02-14T00:35:15;8.60;99.90
12708;DHT22;6418;50.824;4.718;2024-02-14T00:37:42;8.70;99.90
12708;DHT22;6418;50.824;4.718;2024-02-14T00:40:10;8.70;99.90
12708;DHT22;6418;50.824;4.718;2024-02-14T00:42:37;8.70;99.90
12708;DHT22;6418;50.824;4.718;2024-02-14T00:45:05;8.70;99.90
12708;DHT22;6418;50.824;4.718;2024-02-14T00:47:35;8.70;99.90
12708;DHT22;6418;50.824;4.718;2024-02-14T00:50:03;8.80;99.90
12708;DHT22;6418;50.824;4.718;2024-02-14T00:52:30;8.70;99.90
12708;DHT22;6418;50.824;4.718;2024-02-14T00:54:57;8.80;99.90
12708;DHT22;6418;50.824;4.718;2024-02-14T00:57:24;8.80;99.90
12708;DHT22;6418;50.824;4.718;2024-02-14T00:59:51;8.80;99.90
12708;DHT22;6418;50.824;4.718;2024-02-14T01:02:19;8.80;99.90
12708;DHT22;6418;50.824;4.718;2024-02-14T01:04:48;8.80;99.90
12708;DHT22;6418;50.824;4.718;2024-02-14T01:07:15;8.80;99.90
12708;DHT22;6418;50.824;4.718;2024-02-14T01:09:42;8.90;99.90
12708;DHT22;6418;50.824;4.718;2024-02-14T01:12:08;8.80;99.90
12708;DHT22;6418;50.824;4.718;2024-02-14T01:14:35;8.90;99.90
12708;DHT22;6418;50.824;4.718;2024-02-14T01:17:03;8.80;99.90
12708;DHT22;6418;50.824;4.718;2024-02-14T01:19:30;8.90;99.90
12708;DHT22;6418;50.824;4.718;2024-02-14T01:21:58;8.90;99.90
12708;DHT22;6418;50.824;4.718;2024-02-14T01:24:25;8.90;99.90
12708;DHT22;6418;50.824;4.718;2024-02-14T01:26:53;8.90;99.90
12708;DHT22;6418;50.824;4.718;2024-02-14T01:29:20;8.90;99.90
12708;DHT22;6418;50.824;4.718;2024-02-14T01:31:47;8.90;99.90
12708;DHT22;6418;50.824;4.718;2024-02-14T01:34:14;9.00;99.90
12708;DHT22;6418;50.824;4.718;2024-02-14T01:36:41;9.00;99.90
12708;DHT22;6418;50.824;4.718;2024-02-14T01:39:09;8.90;99.90
12708;DHT22;6418;50.824;4.718;2024-02-14T01:41:36;9.00;99.90
12708;DHT22;6418;50.824;4.718;2024-02-14T01:44:04;9.00;99.90
12708;DHT22;6418;50.824;4.718;2024-02-14T01:46:30;9.00;99.90
12708;DHT22;6418;50.824;4.718;2024-02-14T01:48:57;9.00;99.90
12708;DHT22;6418;50.824;4.718;2024-02-14T01:51:24;9.00;99.90
12708;DHT22;6418;50.824;4.718;2024-02-14T01:53:53;9.00;99.90
12708;DHT22;6418;50.824;4.718;2024-02-14T01:56:22;9.00;99.90
12708;DHT22;6418;50.824;4.718;2024-02-14T01:58:50;9.00;99.90
12708;DHT22;6418;50.824;4.718;2024-02-14T02:01:18;9.00;99.90
12708;DHT22;6418;50.824;4.718;2024-02-14T02:03:45;9.00;99.90
12708;DHT22;6418;50.824;4.718;2024-02-14T02:06:12;9.00;99.90
12708;DHT22;6418;50.824;4.718;2024-02-14T02:08:42;9.00;99.90
12708;DHT22;6418;50.824;4.718;2024-02-14T02:11:09;9.00;99.90
12708;DHT22;6418;50.824;4.718;2024-02-14T02:13:38;9.00;99.90
12708;DHT22;6418;50.824;4.718;2024-02-14T02:16:06;8.90;99.90
12708;DHT22;6418;50.824;4.718;2024-02-14T02:18:33;8.90;99.90
12708;DHT22;6418;50.824;4.718;2024-02-14T02:21:00;8.90;99.90
12708;DHT22;6418;50.824;4.718;2024-02-14T02:23:33;8.90;99.90
12708;DHT22;6418;50.824;4.718;2024-02-14T02:26:00;9.00;99.90
12708;DHT22;6418;50.824;4.718;2024-02-14T02:28:27;9.00;99.90
12708;DHT22;6418;50.824;4.718;2024-02-14T02:30:54;9.00;99.90
12708;DHT22;6418;50.824;4.718;2024-02-14T02:33:21;9.00;99.90
12708;DHT22;6418;50.824;4.718;2024-02-14T02:35:48;9.00;99.90
12708;DHT22;6418;50.824;4.718;2024-02-14T02:38:15;9.00;99.90
12708;DHT22;6418;50.824;4.718;2024-02-14T02:40:44;9.00;99.90
12708;DHT22;6418;50.824;4.718;2024-02-14T02:43:11;9.00;99.90
12708;DHT22;6418;50.824;4.718;2024-02-14T02:45:38;8.90;99.90
12708;DHT22;6418;50.824;4.718;2024-02-14T02:48:06;8.90;99.90
12708;DHT22;6418;50.824;4.718;2024-02-14T02:50:33;8.90;99.90
12708;DHT22;6418;50.824;4.718;2024-02-14T02:52:59;8.90;99.90
12708;DHT22;6418;50.824;4.718;2024-02-14T02:55:27;8.90;99.90
12708;DHT22;6418;50.824;4.718;2024-02-14T02:57:55;8.90;99.90
12708;DHT22;6418;50.824;4.718;2024-02-14T03:00:22;8.90;99.90
12708;DHT22;6418;50.824;4.718;2024-02-14T03:02:49;8.90;99.90
12708;DHT22;6418;50.824;4.718;2024-02-14T03:05:16;8.90;99.90
12708;DHT22;6418;50.824;4.718;2024-02-14T03:07:44;8.90;99.90
12708;DHT22;6418;50.824;4.718;2024-02-14T03:10:14;9.00;99.90
12708;DHT22;6418;50.824;4.718;2024-02-14T03:12:45;9.00;99.90
12708;DHT22;6418;50.824;4.718;2024-02-14T03:15:14;9.00;99.90
12708;DHT22;6418;50.824;4.718;2024-02-14T03:17:41;9.00;99.90
12708;DHT22;6418;50.824;4.718;2024-02-14T03:20:09;9.00;99.90
12708;DHT22;6418;50.824;4.718;2024-02-14T03:22:38;9.00;99.90
12708;DHT22;6418;50.824;4.718;2024-02-14T03:25:12;9.00;99.90
12708;DHT22;6418;50.824;4.718;2024-02-14T03:27:40;9.00;99.90
12708;DHT22;6418;50.824;4.718;2024-02-14T03:30:07;9.00;99.90
12708;DHT22;6418;50.824;4.718;2024-02-14T03:32:36;9.00;99.90
12708;DHT22;6418;50.824;4.718;2024-02-14T03:35:03;9.00;99.90
12708;DHT22;6418;50.824;4.718;2024-02-14T03:37:32;9.00;99.90
12708;DHT22;6418;50.824;4.718;2024-02-14T03:39:59;9.10;99.90
12708;DHT22;6418;50.824;4.718;2024-02-14T03:42:26;9.00;99.90
12708;DHT22;6418;50.824;4.718;2024-02-14T03:44:52;9.10;99.90
12708;DHT22;6418;50.824;4.718;2024-02-14T03:47:25;9.10;99.90
12708;DHT22;6418;50.824;4.718;2024-02-14T03:49:53;9.10;99.90
12708;DHT22;6418;50.824;4.718;2024-02-14T03:52:20;9.00;99.90
12708;DHT22;6418;50.824;4.718;2024-02-14T03:54:48;9.10;99.90
12708;DHT22;6418;50.824;4.718;2024-02-14T03:57:15;9.10;99.90
12708;DHT22;6418;50.824;4.718;2024-02-14T03:59:43;9.10;99.90
12708;DHT22;6418;50.824;4.718;2024-02-14T04:02:10;9.10;99.90
12708;DHT22;6418;50.824;4.718;2024-02-14T04:04:37;9.10;99.90
12708;DHT22;6418;50.824;4.718;2024-02-14T04:07:06;9.10;99.90
12708;DHT22;6418;50.824;4.718;2024-02-14T04:09:34;9.20;99.90
12708;DHT22;6418;50.824;4.718;2024-02-14T04:12:01;9.20;99.90
12708;DHT22;6418;50.824;4.718;2024-02-14T04:14:28;9.20;99.90
12708;DHT22;6418;50.824;4.718;2024-02-14T04:16:55;9.20;99.90
12708;DHT22;6418;50.824;4.718;2024-02-14T04:19:21;9.20;99.90
12708;DHT22;6418;50.824;4.718;2024-02-14T04:21:49;9.20;99.90
12708;DHT22;6418;50.824;4.718;2024-02-14T04:24:18;9.20;99.90
12708;DHT22;6418;50.824;4.718;2024-02-14T04:26:44;9.20;99.90
12708;DHT22;6418;50.824;4.718;2024-02-14T04:29:13;9.20;99.90
12708;DHT22;6418;50.824;4.718;2024-02-14T04:31:40;9.30;99.90
12708;DHT22;6418;50.824;4.718;2024-02-14T04:34:08;9.20;99.90
12708;DHT22;6418;50.824;4.718;2024-02-14T04:36:35;9.20;99.90
12708;DHT22;6418;50.824;4.718;2024-02-14T04:39:02;9.20;99.90
12708;DHT22;6418;50.824;4.718;2024-02-14T04:41:31;9.20;99.90
12708;DHT22;6418;50.824;4.718;2024-02-14T04:43:58;9.30;99.90
12708;DHT22;6418;50.824;4.718;2024-02-14T04:46:25;9.30;99.90
12708;DHT22;6418;50.824;4.718;2024-02-14T04:48:51;9.30;99.90
12708;DHT22;6418;50.824;4.718;2024-02-14T04:51:19;9.30;99.90
12708;DHT22;6418;50.824;4.718;2024-02-14T04:53:46;9.30;99.90
12708;DHT22;6418;50.824;4.718;2024-02-14T04:56:12;9.30;99.90
12708;DHT22;6418;50.824;4.718;2024-02-14T04:58:41;9.30;99.90
12708;DHT22;6418;50.824;4.718;2024-02-14T05:01:07;9.30;99.90
12708;DHT22;6418;50.824;4.718;2024-02-14T05:03:34;9.30;99.90
12708;DHT22;6418;50.824;4.718;2024-02-14T05:06:02;9.40;99.90
12708;DHT22;6418;50.824;4.718;2024-02-14T05:08:31;9.40;99.90
12708;DHT22;6418;50.824;4.718;2024-02-14T05:10:58;9.40;99.90
12708;DHT22;6418;50.824;4.718;2024-02-14T05:13:25;9.40;99.90
12708;DHT22;6418;50.824;4.718;2024-02-14T05:15:53;9.40;99.90
12708;DHT22;6418;50.824;4.718;2024-02-14T05:18:20;9.40;99.90
12708;DHT22;6418;50.824;4.718;2024-02-14T05:20:47;9.40;99.90
12708;DHT22;6418;50.824;4.718;2024-02-14T05:23:15;9.40;99.90
12708;DHT22;6418;50.824;4.718;2024-02-14T05:25:43;9.40;99.90
12708;DHT22;6418;50.824;4.718;2024-02-14T05:28:10;9.40;99.90
12708;DHT22;6418;50.824;4.718;2024-02-14T05:30:39;9.40;99.90
12708;DHT22;6418;50.824;4.718;2024-02-14T05:33:07;9.40;99.90
12708;DHT22;6418;50.824;4.718;2024-02-14T05:35:34;9.40;99.90
12708;DHT22;6418;50.824;4.718;2024-02-14T05:38:01;9.40;99.90
12708;DHT22;6418;50.824;4.718;2024-02-14T05:40:30;9.40;99.90
12708;DHT22;6418;50.824;4.718;2024-02-14T05:42:57;9.40;99.90
12708;DHT22;6418;50.824;4.718;2024-02-14T05:45:24;9.40;99.90
12708;DHT22;6418;50.824;4.718;2024-02-14T05:47:51;9.40;99.90
12708;DHT22;6418;50.824;4.718;2024-02-14T05:50:20;9.40;99.90
12708;DHT22;6418;50.824;4.718;2024-02-14T05:52:46;9.40;99.90
12708;DHT22;6418;50.824;4.718;2024-02-14T05:55:14;9.40;99.90
12708;DHT22;6418;50.824;4.718;2024-02-14T05:57:40;9.40;99.90
12708;DHT22;6418;50.824;4.718;2024-02-14T06:00:08;9.40;99.90
12708;DHT22;6418;50.824;4.718;2024-02-14T06:02:36;9.40;99.90
12708;DHT22;6418;50.824;4.718;2024-02-14T06:05:03;9.40;99.90
12708;DHT22;6418;50.824;4.718;2024-02-14T06:07:32;9.40;99.90
12708;DHT22;6418;50.824;4.718;2024-02-14T06:09:59;9.40;99.90
12708;DHT22;6418;50.824;4.718;2024-02-14T06:12:25;9.40;99.90
12708;DHT22;6418;50.824;4.718;2024-02-14T06:14:52;9.40;99.90
12708;DHT22;6418;50.824;4.718;2024-02-14T06:17:19;9.40;99.90
12708;DHT22;6418;50.824;4.718;2024-02-14T06:19:46;9.40;99.90
12708;DHT22;6418;50.824;4.718;2024-02-14T06:22:13;9.40;99.90
12708;DHT22;6418;50.824;4.718;2024-02-14T06:24:41;9.50;99.90
12708;DHT22;6418;50.824;4.718;2024-02-14T06:27:08;9.50;99.90
12708;DHT22;6418;50.824;4.718;2024-02-14T06:29:35;9.50;99.90
12708;DHT22;6418;50.824;4.718;2024-02-14T06:32:02;9.50;99.90
12708;DHT22;6418;50.824;4.718;2024-02-14T06:34:29;9.50;99.90
12708;DHT22;6418;50.824;4.718;2024-02-14T06:36:56;9.50;99.90
12708;DHT22;6418;50.824;4.718;2024-02-14T06:39:23;9.50;99.90
12708;DHT22;6418;50.824;4.718;2024-02-14T06:41:51;9.60;99.90
12708;DHT22;6418;50.824;4.718;2024-02-14T06:44:18;9.60;99.90
12708;DHT22;6418;50.824;4.718;2024-02-14T06:46:45;9.60;99.90
12708;DHT22;6418;50.824;4.718;2024-02-14T06:49:12;9.60;99.90
12708;DHT22;6418;50.824;4.718;2024-02-14T06:51:39;9.60;99.90
12708;DHT22;6418;50.824;4.718;2024-02-14T06:54:06;9.60;99.90
12708;DHT22;6418;50.824;4.718;2024-02-14T06:56:35;9.60;99.90
12708;DHT22;6418;50.824;4.718;2024-02-14T06:59:03;9.70;99.90
12708;DHT22;6418;50.824;4.718;2024-02-14T07:01:30;9.70;99.90
12708;DHT22;6418;50.824;4.718;2024-02-14T07:03:57;9.70;99.90
12708;DHT22;6418;50.824;4.718;2024-02-14T07:06:24;9.70;99.90
12708;DHT22;6418;50.824;4.718;2024-02-14T07:08:51;9.70;99.90
12708;DHT22;6418;50.824;4.718;2024-02-14T07:11:18;9.70;99.90
12708;DHT22;6418;50.824;4.718;2024-02-14T07:13:45;9.70;99.90
12708;DHT22;6418;50.824;4.718;2024-02-14T07:16:13;9.80;99.90
12708;DHT22;6418;50.824;4.718;2024-02-14T07:18:40;9.80;99.90
12708;DHT22;6418;50.824;4.718;2024-02-14T07:21:07;9.80;99.90
12708;DHT22;6418;50.824;4.718;2024-02-14T07:23:34;9.90;99.90
12708;DHT22;6418;50.824;4.718;2024-02-14T07:26:01;9.80;99.90
12708;DHT22;6418;50.824;4.718;2024-02-14T07:28:28;9.80;99.90
12708;DHT22;6418;50.824;4.718;2024-02-14T07:30:55;9.80;99.90
12708;DHT22;6418;50.824;4.718;2024-02-14T07:33:23;9.90;99.90
12708;DHT22;6418;50.824;4.718;2024-02-14T07:35:50;9.90;99.90
12708;DHT22;6418;50.824;4.718;2024-02-14T07:38:17;9.90;99.90
12708;DHT22;6418;50.824;4.718;2024-02-14T07:40:44;9.90;99.90
12708;DHT22;6418;50.824;4.718;2024-02-14T07:43:11;9.90;99.90
12708;DHT22;6418;50.824;4.718;2024-02-14T07:45:38;9.90;99.90
12708;DHT22;6418;50.824;4.718;2024-02-14T07:48:05;10.00;99.90
12708;DHT22;6418;50.824;4.718;2024-02-14T07:50:34;10.00;99.90
12708;DHT22;6418;50.824;4.718;2024-02-14T07:53:02;10.00;99.90
12708;DHT22;6418;50.824;4.718;2024-02-14T07:55:29;10.00;99.90
12708;DHT22;6418;50.824;4.718;2024-02-14T07:57:56;10.10;99.90
12708;DHT22;6418;50.824;4.718;2024-02-14T08:00:25;10.10;99.90
12708;DHT22;6418;50.824;4.718;2024-02-14T08:02:52;10.10;99.90
12708;DHT22;6418;50.824;4.718;2024-02-14T08:05:19;10.10;99.90
12708;DHT22;6418;50.824;4.718;2024-02-14T08:07:47;10.10;99.90
12708;DHT22;6418;50.824;4.718;2024-02-14T08:10:14;10.20;99.90
12708;DHT22;6418;50.824;4.718;2024-02-14T08:12:41;10.20;99.90
12708;DHT22;6418;50.824;4.718;2024-02-14T08:15:09;10.20;99.90
12708;DHT22;6418;50.824;4.718;2024-02-14T08:17:36;10.20;99.90
12708;DHT22;6418;50.824;4.718;2024-02-14T08:20:04;10.30;99.90
12708;DHT22;6418;50.824;4.718;2024-02-14T08:22:31;10.30;99.90
12708;DHT22;6418;50.824;4.718;2024-02-14T08:24:59;10.30;99.90
12708;DHT22;6418;50.824;4.718;2024-02-14T08:27:26;10.30;99.90
12708;DHT22;6418;50.824;4.718;2024-02-14T08:29:53;10.40;99.90
12708;DHT22;6418;50.824;4.718;2024-02-14T08:32:20;10.30;99.90
12708;DHT22;6418;50.824;4.718;2024-02-14T08:34:48;10.40;99.90
12708;DHT22;6418;50.824;4.718;2024-02-14T08:37:16;10.40;99.90
12708;DHT22;6418;50.824;4.718;2024-02-14T08:39:43;10.40;99.90
12708;DHT22;6418;50.824;4.718;2024-02-14T08:42:11;10.40;99.90
12708;DHT22;6418;50.824;4.718;2024-02-14T08:44:38;10.40;99.90
12708;DHT22;6418;50.824;4.718;2024-02-14T08:47:06;10.40;99.90
12708;DHT22;6418;50.824;4.718;2024-02-14T08:49:34;10.40;99.90
12708;DHT22;6418;50.824;4.718;2024-02-14T08:52:01;10.40;99.90
12708;DHT22;6418;50.824;4.718;2024-02-14T08:54:28;10.40;99.90
12708;DHT22;6418;50.824;4.718;2024-02-14T08:56:55;10.40;99.90
12708;DHT22;6418;50.824;4.718;2024-02-14T08:59:25;10.40;99.90
12708;DHT22;6418;50.824;4.718;2024-02-14T09:01:53;10.40;99.90
12708;DHT22;6418;50.824;4.718;2024-02-14T09:04:19;10.40;99.90
12708;DHT22;6418;50.824;4.718;2024-02-14T09:06:46;10.40;99.90
12708;DHT22;6418;50.824;4.718;2024-02-14T09:09:13;10.40;99.90
12708;DHT22;6418;50.824;4.718;2024-02-14T09:11:41;10.40;99.90
12708;DHT22;6418;50.824;4.718;2024-02-14T09:14:08;10.40;99.90
12708;DHT22;6418;50.824;4.718;2024-02-14T09:16:37;10.50;99.90
12708;DHT22;6418;50.824;4.718;2024-02-14T09:19:04;10.50;99.90
12708;DHT22;6418;50.824;4.718;2024-02-14T09:21:33;10.50;99.90
12708;DHT22;6418;50.824;4.718;2024-02-14T09:24:01;10.50;99.90
12708;DHT22;6418;50.824;4.718;2024-02-14T09:26:28;10.50;99.90
12708;DHT22;6418;50.824;4.718;2024-02-14T09:28:55;10.50;99.90
12708;DHT22;6418;50.824;4.718;2024-02-14T09:31:22;10.50;99.90
12708;DHT22;6418;50.824;4.718;2024-02-14T09:33:50;10.50;99.90
12708;DHT22;6418;50.824;4.718;2024-02-14T09:36:22;10.50;99.90
12708;DHT22;6418;50.824;4.718;2024-02-14T09:38:49;10.60;99.90
12708;DHT22;6418;50.824;4.718;2024-02-14T09:41:22;10.60;99.90
12708;DHT22;6418;50.824;4.718;2024-02-14T09:43:50;10.60;99.90
12708;DHT22;6418;50.824;4.718;2024-02-14T09:46:17;10.60;99.90
12708;DHT22;6418;50.824;4.718;2024-02-14T09:48:44;10.60;99.90
12708;DHT22;6418;50.824;4.718;2024-02-14T09:51:13;10.60;99.90
12708;DHT22;6418;50.824;4.718;2024-02-14T09:53:40;10.70;99.90
12708;DHT22;6418;50.824;4.718;2024-02-14T09:56:09;10.70;99.90
12708;DHT22;6418;50.824;4.718;2024-02-14T09:58:37;10.70;99.90
12708;DHT22;6418;50.824;4.718;2024-02-14T10:01:04;10.70;99.90
12708;DHT22;6418;50.824;4.718;2024-02-14T10:03:32;10.70;99.90
12708;DHT22;6418;50.824;4.718;2024-02-14T10:05:59;10.70;99.90
12708;DHT22;6418;50.824;4.718;2024-02-14T10:08:27;10.70;99.90
12708;DHT22;6418;50.824;4.718;2024-02-14T10:10:56;10.70;99.90
12708;DHT22;6418;50.824;4.718;2024-02-14T10:13:26;10.80;99.90
12708;DHT22;6418;50.824;4.718;2024-02-14T10:15:53;10.80;99.90
12708;DHT22;6418;50.824;4.718;2024-02-14T10:18:21;10.80;99.90
12708;DHT22;6418;50.824;4.718;2024-02-14T10:20:55;10.80;99.90
12708;DHT22;6418;50.824;4.718;2024-02-14T10:23:22;10.80;99.90
12708;DHT22;6418;50.824;4.718;2024-02-14T10:25:52;10.80;99.90
12708;DHT22;6418;50.824;4.718;2024-02-14T10:28:20;10.80;99.90
12708;DHT22;6418;50.824;4.718;2024-02-14T10:30:48;10.90;99.90
12708;DHT22;6418;50.824;4.718;2024-02-14T10:33:16;10.90;99.90
12708;DHT22;6418;50.824;4.718;2024-02-14T10:35:43;10.90;99.90
12708;DHT22;6418;50.824;4.718;2024-02-14T10:38:11;10.90;99.90
12708;DHT22;6418;50.824;4.718;2024-02-14T10:40:39;10.90;99.90
12708;DHT22;6418;50.824;4.718;2024-02-14T10:43:08;11.00;99.90
12708;DHT22;6418;50.824;4.718;2024-02-14T10:45:35;11.00;99.90
12708;DHT22;6418;50.824;4.718;2024-02-14T10:48:04;11.00;99.90
12708;DHT22;6418;50.824;4.718;2024-02-14T10:50:33;11.00;99.90
12708;DHT22;6418;50.824;4.718;2024-02-14T10:53:04;11.00;99.90
12708;DHT22;6418;50.824;4.718;2024-02-14T10:55:32;11.10;99.90
12708;DHT22;6418;50.824;4.718;2024-02-14T10:58:00;11.10;99.90
12708;DHT22;6418;50.824;4.718;2024-02-14T11:00:29;11.10;99.90
12708;DHT22;6418;50.824;4.718;2024-02-14T11:02:58;11.20;99.90
12708;DHT22;6418;50.824;4.718;2024-02-14T11:05:26;11.20;99.90
12708;DHT22;6418;50.824;4.718;2024-02-14T11:07:53;11.20;99.90
12708;DHT22;6418;50.824;4.718;2024-02-14T11:10:21;11.20;99.90
12708;DHT22;6418;50.824;4.718;2024-02-14T11:12:49;11.30;99.90
12708;DHT22;6418;50.824;4.718;2024-02-14T11:15:17;11.30;99.90
12708;DHT22;6418;50.824;4.718;2024-02-14T11:17:46;11.30;99.90
12708;DHT22;6418;50.824;4.718;2024-02-14T11:20:18;11.40;99.90
12708;DHT22;6418;50.824;4.718;2024-02-14T11:22:56;11.30;99.90
12708;DHT22;6418;50.824;4.718;2024-02-14T11:25:28;11.40;99.90
12708;DHT22;6418;50.824;4.718;2024-02-14T11:27:57;11.40;99.90
12708;DHT22;6418;50.824;4.718;2024-02-14T11:30:32;11.40;99.90
12708;DHT22;6418;50.824;4.718;2024-02-14T11:33:17;11.50;99.90
12708;DHT22;6418;50.824;4.718;2024-02-14T11:35:46;11.50;99.90
12708;DHT22;6418;50.824;4.718;2024-02-14T11:38:13;11.50;99.90
12708;DHT22;6418;50.824;4.718;2024-02-14T11:40:40;11.50;99.90
12708;DHT22;6418;50.824;4.718;2024-02-14T11:43:11;11.50;99.90
12708;DHT22;6418;50.824;4.718;2024-02-14T11:45:38;11.50;99.90
12708;DHT22;6418;50.824;4.718;2024-02-14T11:48:08;11.50;99.90
12708;DHT22;6418;50.824;4.718;2024-02-14T11:50:36;11.50;99.90
12708;DHT22;6418;50.824;4.718;2024-02-14T11:53:05;11.50;99.90
12708;DHT22;6418;50.824;4.718;2024-02-14T11:55:34;11.50;99.90
12708;DHT22;6418;50.824;4.718;2024-02-14T11:58:03;11.60;99.90
12708;DHT22;6418;50.824;4.718;2024-02-14T12:00:30;11.60;99.90
12708;DHT22;6418;50.824;4.718;2024-02-14T12:02:57;11.60;99.90
12708;DHT22;6418;50.824;4.718;2024-02-14T12:05:24;11.60;99.90
12708;DHT22;6418;50.824;4.718;2024-02-14T12:07:53;11.60;99.90
12708;DHT22;6418;50.824;4.718;2024-02-14T12:10:20;11.60;99.90
12708;DHT22;6418;50.824;4.718;2024-02-14T12:12:48;11.60;99.90
12708;DHT22;6418;50.824;4.718;2024-02-14T12:15:15;11.60;99.90
12708;DHT22;6418;50.824;4.718;2024-02-14T12:17:42;11.70;99.90
12708;DHT22;6418;50.824;4.718;2024-02-14T12:20:12;11.70;99.90
12708;DHT22;6418;50.824;4.718;2024-02-14T12:22:39;11.70;99.90
12708;DHT22;6418;50.824;4.718;2024-02-14T12:25:08;11.70;99.90
12708;DHT22;6418;50.824;4.718;2024-02-14T12:27:36;11.70;99.90
12708;DHT22;6418;50.824;4.718;2024-02-14T12:30:04;11.80;99.90
12708;DHT22;6418;50.824;4.718;2024-02-14T12:32:31;11.80;99.90
12708;DHT22;6418;50.824;4.718;2024-02-14T12:34:58;11.80;99.90
12708;DHT22;6418;50.824;4.718;2024-02-14T12:37:26;11.90;99.90
12708;DHT22;6418;50.824;4.718;2024-02-14T12:39:52;11.90;99.90
12708;DHT22;6418;50.824;4.718;2024-02-14T12:42:22;11.90;99.90
12708;DHT22;6418;50.824;4.718;2024-02-14T12:44:51;11.90;99.90
12708;DHT22;6418;50.824;4.718;2024-02-14T12:47:19;11.90;99.90
12708;DHT22;6418;50.824;4.718;2024-02-14T12:49:47;11.90;99.90
12708;DHT22;6418;50.824;4.718;2024-02-14T12:52:15;12.00;99.90
12708;DHT22;6418;50.824;4.718;2024-02-14T12:54:42;11.90;99.90
12708;DHT22;6418;50.824;4.718;2024-02-14T12:57:09;12.00;99.90
12708;DHT22;6418;50.824;4.718;2024-02-14T12:59:38;12.00;99.90
12708;DHT22;6418;50.824;4.718;2024-02-14T13:02:05;11.90;99.90
12708;DHT22;6418;50.824;4.718;2024-02-14T13:04:33;12.00;99.90
12708;DHT22;6418;50.824;4.718;2024-02-14T13:07:00;11.90;99.90
12708;DHT22;6418;50.824;4.718;2024-02-14T13:09:27;12.00;99.90
12708;DHT22;6418;50.824;4.718;2024-02-14T13:11:54;12.00;99.90
12708;DHT22;6418;50.824;4.718;2024-02-14T13:14:21;12.00;99.90
12708;DHT22;6418;50.824;4.718;2024-02-14T13:16:49;12.00;99.90
12708;DHT22;6418;50.824;4.718;2024-02-14T13:19:16;12.00;99.90
12708;DHT22;6418;50.824;4.718;2024-02-14T13:21:43;12.00;99.90
12708;DHT22;6418;50.824;4.718;2024-02-14T13:24:12;12.00;99.90
12708;DHT22;6418;50.824;4.718;2024-02-14T13:26:39;12.10;99.90
12708;DHT22;6418;50.824;4.718;2024-02-14T13:29:06;12.10;99.90
12708;DHT22;6418;50.824;4.718;2024-02-14T13:31:33;12.00;99.90
12708;DHT22;6418;50.824;4.718;2024-02-14T13:34:02;12.00;99.90
12708;DHT22;6418;50.824;4.718;2024-02-14T13:36:30;12.00;99.90
12708;DHT22;6418;50.824;4.718;2024-02-14T13:38:57;12.00;99.90
12708;DHT22;6418;50.824;4.718;2024-02-14T13:41:25;12.10;99.90
12708;DHT22;6418;50.824;4.718;2024-02-14T13:43:52;12.00;99.90
12708;DHT22;6418;50.824;4.718;2024-02-14T13:46:19;12.10;99.90
12708;DHT22;6418;50.824;4.718;2024-02-14T13:48:46;12.10;99.90
12708;DHT22;6418;50.824;4.718;2024-02-14T13:51:14;12.10;99.90
12708;DHT22;6418;50.824;4.718;2024-02-14T13:53:41;12.10;99.90
12708;DHT22;6418;50.824;4.718;2024-02-14T13:56:09;12.10;99.90
12708;DHT22;6418;50.824;4.718;2024-02-14T13:58:36;12.10;99.90
12708;DHT22;6418;50.824;4.718;2024-02-14T14:01:04;12.10;99.90
12708;DHT22;6418;50.824;4.718;2024-02-14T14:03:32;12.10;99.90
12708;DHT22;6418;50.824;4.718;2024-02-14T14:06:02;12.10;99.90
12708;DHT22;6418;50.824;4.718;2024-02-14T14:08:33;12.10;99.90
12708;DHT22;6418;50.824;4.718;2024-02-14T14:11:01;12.10;99.90
12708;DHT22;6418;50.824;4.718;2024-02-14T14:13:28;12.10;99.90
12708;DHT22;6418;50.824;4.718;2024-02-14T14:15:56;12.10;99.90
12708;DHT22;6418;50.824;4.718;2024-02-14T14:18:23;12.10;99.90
12708;DHT22;6418;50.824;4.718;2024-02-14T14:20:50;12.10;99.90
12708;DHT22;6418;50.824;4.718;2024-02-14T14:23:18;12.10;99.90
12708;DHT22;6418;50.824;4.718;2024-02-14T14:25:46;12.10;99.90
12708;DHT22;6418;50.824;4.718;2024-02-14T14:28:13;12.10;99.90
12708;DHT22;6418;50.824;4.718;2024-02-14T14:30:40;12.10;99.90
12708;DHT22;6418;50.824;4.718;2024-02-14T14:33:06;12.10;99.90
12708;DHT22;6418;50.824;4.718;2024-02-14T14:35:34;12.10;99.90
12708;DHT22;6418;50.824;4.718;2024-02-14T14:38:01;12.20;99.90
12708;DHT22;6418;50.824;4.718;2024-02-14T14:40:29;12.20;99.90
12708;DHT22;6418;50.824;4.718;2024-02-14T14:42:58;12.20;99.90
12708;DHT22;6418;50.824;4.718;2024-02-14T14:45:25;12.20;99.90
12708;DHT22;6418;50.824;4.718;2024-02-14T14:47:53;12.20;99.90
12708;DHT22;6418;50.824;4.718;2024-02-14T14:50:21;12.20;99.90
12708;DHT22;6418;50.824;4.718;2024-02-14T14:52:48;12.20;99.90
12708;DHT22;6418;50.824;4.718;2024-02-14T14:55:15;12.20;99.90
12708;DHT22;6418;50.824;4.718;2024-02-14T14:57:42;12.20;99.90
12708;DHT22;6418;50.824;4.718;2024-02-14T15:00:11;12.20;99.90
12708;DHT22;6418;50.824;4.718;2024-02-14T15:02:38;12.30;99.90
12708;DHT22;6418;50.824;4.718;2024-02-14T15:05:08;12.20;99.90
12708;DHT22;6418;50.824;4.718;2024-02-14T15:07:35;12.30;99.90
12708;DHT22;6418;50.824;4.718;2024-02-14T15:10:03;12.30;99.90
12708;DHT22;6418;50.824;4.718;2024-02-14T15:12:30;12.30;99.90
12708;DHT22;6418;50.824;4.718;2024-02-14T15:14:56;12.30;99.90
12708;DHT22;6418;50.824;4.718;2024-02-14T15:17:25;12.30;99.90
12708;DHT22;6418;50.824;4.718;2024-02-14T15:19:54;12.30;99.90
12708;DHT22;6418;50.824;4.718;2024-02-14T15:22:20;12.30;99.90
12708;DHT22;6418;50.824;4.718;2024-02-14T15:24:49;12.30;99.90
12708;DHT22;6418;50.824;4.718;2024-02-14T15:27:17;12.40;99.90
12708;DHT22;6418;50.824;4.718;2024-02-14T15:29:49;12.40;99.90
12708;DHT22;6418;50.824;4.718;2024-02-14T15:32:40;12.40;99.90
12708;DHT22;6418;50.824;4.718;2024-02-14T15:35:24;12.40;99.90
12708;DHT22;6418;50.824;4.718;2024-02-14T15:37:50;12.40;99.90
12708;DHT22;6418;50.824;4.718;2024-02-14T15:40:18;12.40;99.90
12708;DHT22;6418;50.824;4.718;2024-02-14T15:42:45;12.40;99.90
12708;DHT22;6418;50.824;4.718;2024-02-14T15:45:13;12.40;99.90
12708;DHT22;6418;50.824;4.718;2024-02-14T15:47:44;12.40;99.90
12708;DHT22;6418;50.824;4.718;2024-02-14T15:50:11;12.40;99.90
12708;DHT22;6418;50.824;4.718;2024-02-14T15:52:38;12.30;99.90
12708;DHT22;6418;50.824;4.718;2024-02-14T15:55:07;12.40;99.90
12708;DHT22;6418;50.824;4.718;2024-02-14T15:57:34;12.40;99.90